Startpagina
METAR-TAF:

METAR-TAF

Vliegvelden :

Malé International Airport

Malé, Maldiven

breedte: 04-12N, lengte: 073-32E, hoogte: 2 m

Actueel weer

Dit bericht is 58 minuten geleden gemaakt, om 23:00 UTC
Wind 5 kt uit het zuidwesten
Temperatuur 28°C
Vochtigheid 84%
Druk 1010 hPa
Zicht 10 km of meer
Weinig wolken op 1800 ft
Gebroken wolken op 12000 ft

METAR: VRMM 172300Z 22005KT 9999 FEW018 BKN120 28/25 Q1010 NOSIG

Tijdstip: 04:58 (23:58 UTC)

Verwachting

Dit bericht is 58 minuten geleden gemaakt, om 23:00 UTC
Verwachting geldig van 18 om 00 UTC tot 19 om 06 UTC
Wind 5 kt uit het zuidwesten
Zicht 10 km of meer
Weinig wolken op 1800 ft
Gebroken wolken op 12000 ft
Tijdelijke
van 18 om 00 UTC tot 18 om 06 UTC
Zicht: 5000 m
Weinig wolken op 1700 ft, Cumulonimbus.
lichte regenbuien

TAF: VRMM 172300Z 1800/1906 22005KT 9999 FEW018 BKN120 TEMPO 1800/1806 5000 -SHRA FEW017CB

Waarnemingen en weersverwachtingen van meer dan 4000 vliegvelden (METAR en TAF).

De beschikbare stations zijn de gele en rode punten op de kaart.

Ga met uw muis naar het station om de naam te zien.

Klik dan om waarnemingen en weersverwachtingen te zien.

kaart wijzigen: klik op de groene knoppen met een zwart kruis om in te zoomen, op de groene knop met een streepje om uit te zoomen of op de groene pijlen voor aangrenzende kaarten.


METAR-TAF: